OIMC  Sarakhs Airport

Add Bookmark

Sarakhs, Iran

Status IATA
Operational CKT
Latitude Longitude
36° 30' 4" N 61° 3' 53" E
36.501202 61.064899
Local (DST + 5) UTC (GMT + 4)
Sep 2, 2014 11:16 Sep 2, 2014 18:46
Sunrise-Sunset Local UTC
Begin Civil Twilight 05:30 01:00
Sunrise 05:56 01:26
Sunset 06:54 14:24
End Civil Twilight 07:20 14:50

Current Weather

METAR Observed VFR
OIMC 021700Z 00000KT CAVOK 27/06 Q1014 Tue, Sep 2, 2014 @ 17:00 UTC
(1 Hour, 46 Minutes ago)
Visual Flight Rules
Wind Visibility Clouds Conditions
Calm 10 km or more
  • Clear skies
  • No significant weather
Temperatures Readings Precipitation
Current Temp 27°C (81°F)
Dewpoint 6°C (43°F)
Humidity 26%
Altimeter 29.94"Hg
Sea Level Pressure 1014mb
Field Elevation 944.88'
None Recorded

Additional weather within a 185.2km radius of OIMC

Map ICAO Location
OIMM 130.8km W (257°)
UTAM 144.5km N (030°)

24 Hour Weather History

Loading
-

24 Hour Weather Graphs

Loading
-

CheckWX.com is intended as a tool to help pilots better visualize weather data. It is not intended as a substitute for an official weather briefing obtained from a Flight Service Station. CheckWX.com does not meet the FAA requirements for an official pre-flight weather briefing. Therefore, it's important that pilots still call and obtain an official FSS pre-flight weather briefing.